sensor_id;sensor_type;location;lat;lon;timestamp;P1;durP1;ratioP1;P2;durP2;ratioP2
70052;SDS011;57398;52.032;4.376;2022-07-21T00:00:17;20.65;;;11.73;;
70052;SDS011;57398;52.032;4.376;2022-07-21T00:02:45;20.67;;;11.52;;
70052;SDS011;57398;52.032;4.376;2022-07-21T00:05:13;19.17;;;11.50;;
70052;SDS011;57398;52.032;4.376;2022-07-21T00:07:40;21.90;;;12.00;;
70052;SDS011;57398;52.032;4.376;2022-07-21T00:10:08;21.25;;;12.15;;
70052;SDS011;57398;52.032;4.376;2022-07-21T00:12:35;21.20;;;11.90;;
70052;SDS011;57398;52.032;4.376;2022-07-21T00:15:05;18.92;;;11.73;;
70052;SDS011;57398;52.032;4.376;2022-07-21T00:17:32;21.52;;;11.63;;
70052;SDS011;57398;52.032;4.376;2022-07-21T00:20:00;18.83;;;11.13;;
70052;SDS011;57398;52.032;4.376;2022-07-21T00:22:28;21.60;;;11.95;;
70052;SDS011;57398;52.032;4.376;2022-07-21T00:24:55;21.42;;;12.20;;
70052;SDS011;57398;52.032;4.376;2022-07-21T00:27:24;21.27;;;12.18;;
70052;SDS011;57398;52.032;4.376;2022-07-21T00:29:56;22.77;;;12.48;;
70052;SDS011;57398;52.032;4.376;2022-07-21T00:32:25;21.13;;;11.87;;
70052;SDS011;57398;52.032;4.376;2022-07-21T00:35:00;20.92;;;12.38;;
70052;SDS011;57398;52.032;4.376;2022-07-21T00:37:28;20.65;;;11.80;;
70052;SDS011;57398;52.032;4.376;2022-07-21T00:39:57;18.73;;;11.07;;
70052;SDS011;57398;52.032;4.376;2022-07-21T00:42:25;19.95;;;12.13;;
70052;SDS011;57398;52.032;4.376;2022-07-21T00:44:53;20.53;;;12.10;;
70052;SDS011;57398;52.032;4.376;2022-07-21T00:47:21;21.75;;;12.43;;
70052;SDS011;57398;52.032;4.376;2022-07-21T00:49:50;18.88;;;11.52;;
70052;SDS011;57398;52.032;4.376;2022-07-21T00:52:18;19.73;;;11.43;;
70052;SDS011;57398;52.032;4.376;2022-07-21T00:54:46;21.65;;;11.93;;
70052;SDS011;57398;52.032;4.376;2022-07-21T00:57:14;20.50;;;11.57;;
70052;SDS011;57398;52.032;4.376;2022-07-21T00:59:43;21.85;;;12.05;;
70052;SDS011;57398;52.032;4.376;2022-07-21T01:02:11;20.77;;;11.50;;
70052;SDS011;57398;52.032;4.376;2022-07-21T01:04:39;21.50;;;12.43;;
70052;SDS011;57398;52.032;4.376;2022-07-21T01:07:08;21.73;;;11.27;;
70052;SDS011;57398;52.032;4.376;2022-07-21T01:09:36;18.93;;;11.07;;
70052;SDS011;57398;52.032;4.376;2022-07-21T01:12:03;20.38;;;12.10;;
70052;SDS011;57398;52.032;4.376;2022-07-21T01:14:31;21.65;;;12.60;;
70052;SDS011;57398;52.032;4.376;2022-07-21T01:17:00;21.63;;;12.05;;
70052;SDS011;57398;52.032;4.376;2022-07-21T01:19:27;19.95;;;11.85;;
70052;SDS011;57398;52.032;4.376;2022-07-21T01:21:57;20.87;;;11.83;;
70052;SDS011;57398;52.032;4.376;2022-07-21T01:24:24;21.55;;;11.90;;
70052;SDS011;57398;52.032;4.376;2022-07-21T01:26:52;20.80;;;11.75;;
70052;SDS011;57398;52.032;4.376;2022-07-21T01:29:20;21.45;;;11.93;;
70052;SDS011;57398;52.032;4.376;2022-07-21T01:31:48;21.17;;;12.10;;
70052;SDS011;57398;52.032;4.376;2022-07-21T01:34:16;21.90;;;12.50;;
70052;SDS011;57398;52.032;4.376;2022-07-21T01:36:45;20.67;;;11.80;;
70052;SDS011;57398;52.032;4.376;2022-07-21T01:39:14;25.88;;;12.63;;
70052;SDS011;57398;52.032;4.376;2022-07-21T01:41:59;22.13;;;12.13;;
70052;SDS011;57398;52.032;4.376;2022-07-21T01:44:27;21.98;;;12.73;;
70052;SDS011;57398;52.032;4.376;2022-07-21T01:46:55;22.73;;;12.87;;
70052;SDS011;57398;52.032;4.376;2022-07-21T01:49:22;24.30;;;13.20;;
70052;SDS011;57398;52.032;4.376;2022-07-21T01:51:50;23.48;;;13.98;;
70052;SDS011;57398;52.032;4.376;2022-07-21T01:54:20;23.92;;;13.35;;
70052;SDS011;57398;52.032;4.376;2022-07-21T01:56:49;23.52;;;12.88;;
70052;SDS011;57398;52.032;4.376;2022-07-21T01:59:17;23.57;;;13.67;;
70052;SDS011;57398;52.032;4.376;2022-07-21T02:01:44;24.13;;;13.77;;
70052;SDS011;57398;52.032;4.376;2022-07-21T02:04:13;25.17;;;13.55;;
70052;SDS011;57398;52.032;4.376;2022-07-21T02:06:40;24.85;;;13.88;;
70052;SDS011;57398;52.032;4.376;2022-07-21T02:09:08;25.25;;;14.43;;
70052;SDS011;57398;52.032;4.376;2022-07-21T02:11:37;26.83;;;13.40;;
70052;SDS011;57398;52.032;4.376;2022-07-21T02:14:05;24.77;;;13.25;;
70052;SDS011;57398;52.032;4.376;2022-07-21T02:16:33;26.23;;;14.15;;
70052;SDS011;57398;52.032;4.376;2022-07-21T02:19:00;27.33;;;14.38;;
70052;SDS011;57398;52.032;4.376;2022-07-21T02:21:28;26.45;;;14.13;;
70052;SDS011;57398;52.032;4.376;2022-07-21T02:23:56;27.27;;;13.57;;
70052;SDS011;57398;52.032;4.376;2022-07-21T02:26:23;26.17;;;13.63;;
70052;SDS011;57398;52.032;4.376;2022-07-21T02:28:52;25.73;;;13.90;;
70052;SDS011;57398;52.032;4.376;2022-07-21T02:31:20;26.65;;;13.75;;
70052;SDS011;57398;52.032;4.376;2022-07-21T02:33:48;26.60;;;14.50;;
70052;SDS011;57398;52.032;4.376;2022-07-21T02:36:16;25.70;;;13.17;;
70052;SDS011;57398;52.032;4.376;2022-07-21T02:38:43;25.50;;;14.07;;
70052;SDS011;57398;52.032;4.376;2022-07-21T02:41:11;26.00;;;13.85;;
70052;SDS011;57398;52.032;4.376;2022-07-21T02:43:38;26.85;;;13.85;;
70052;SDS011;57398;52.032;4.376;2022-07-21T02:46:07;25.73;;;14.30;;
70052;SDS011;57398;52.032;4.376;2022-07-21T02:48:35;26.93;;;14.13;;
70052;SDS011;57398;52.032;4.376;2022-07-21T02:51:02;23.92;;;13.30;;
70052;SDS011;57398;52.032;4.376;2022-07-21T02:53:33;25.20;;;13.57;;
70052;SDS011;57398;52.032;4.376;2022-07-21T02:56:01;26.98;;;14.05;;
70052;SDS011;57398;52.032;4.376;2022-07-21T02:58:29;27.80;;;14.02;;
70052;SDS011;57398;52.032;4.376;2022-07-21T03:00:57;25.93;;;13.73;;
70052;SDS011;57398;52.032;4.376;2022-07-21T03:03:27;25.98;;;13.63;;
70052;SDS011;57398;52.032;4.376;2022-07-21T03:05:55;26.20;;;14.20;;
70052;SDS011;57398;52.032;4.376;2022-07-21T03:08:23;26.67;;;13.70;;
70052;SDS011;57398;52.032;4.376;2022-07-21T03:10:51;24.60;;;13.18;;
70052;SDS011;57398;52.032;4.376;2022-07-21T03:13:19;25.67;;;13.63;;
70052;SDS011;57398;52.032;4.376;2022-07-21T03:15:46;27.67;;;13.75;;
70052;SDS011;57398;52.032;4.376;2022-07-21T03:18:14;27.05;;;14.27;;
70052;SDS011;57398;52.032;4.376;2022-07-21T03:20:43;28.27;;;14.68;;
70052;SDS011;57398;52.032;4.376;2022-07-21T03:23:10;29.58;;;14.90;;
70052;SDS011;57398;52.032;4.376;2022-07-21T03:25:38;28.60;;;14.43;;
70052;SDS011;57398;52.032;4.376;2022-07-21T03:28:05;27.77;;;14.20;;
70052;SDS011;57398;52.032;4.376;2022-07-21T03:30:33;26.88;;;13.77;;
70052;SDS011;57398;52.032;4.376;2022-07-21T03:33:01;27.13;;;13.50;;
70052;SDS011;57398;52.032;4.376;2022-07-21T03:35:28;27.73;;;13.93;;
70052;SDS011;57398;52.032;4.376;2022-07-21T03:38:00;24.97;;;13.00;;
70052;SDS011;57398;52.032;4.376;2022-07-21T03:40:28;26.27;;;13.10;;
70052;SDS011;57398;52.032;4.376;2022-07-21T03:42:57;24.10;;;12.95;;
70052;SDS011;57398;52.032;4.376;2022-07-21T03:45:25;26.40;;;12.40;;
70052;SDS011;57398;52.032;4.376;2022-07-21T03:47:56;27.35;;;13.35;;
70052;SDS011;57398;52.032;4.376;2022-07-21T03:50:24;25.63;;;12.87;;
70052;SDS011;57398;52.032;4.376;2022-07-21T03:52:51;23.40;;;12.57;;
70052;SDS011;57398;52.032;4.376;2022-07-21T03:55:21;27.35;;;13.73;;
70052;SDS011;57398;52.032;4.376;2022-07-21T03:57:49;28.00;;;13.70;;
70052;SDS011;57398;52.032;4.376;2022-07-21T04:00:18;26.67;;;13.25;;
70052;SDS011;57398;52.032;4.376;2022-07-21T04:02:45;28.30;;;13.77;;
70052;SDS011;57398;52.032;4.376;2022-07-21T04:05:13;30.70;;;13.85;;
70052;SDS011;57398;52.032;4.376;2022-07-21T04:07:42;27.70;;;13.45;;
70052;SDS011;57398;52.032;4.376;2022-07-21T04:10:10;29.63;;;14.63;;
70052;SDS011;57398;52.032;4.376;2022-07-21T04:12:40;33.97;;;16.85;;
70052;SDS011;57398;52.032;4.376;2022-07-21T04:15:08;33.30;;;16.50;;
70052;SDS011;57398;52.032;4.376;2022-07-21T04:17:37;32.45;;;16.65;;
70052;SDS011;57398;52.032;4.376;2022-07-21T04:20:05;35.13;;;17.33;;
70052;SDS011;57398;52.032;4.376;2022-07-21T04:22:33;34.28;;;17.88;;
70052;SDS011;57398;52.032;4.376;2022-07-21T04:25:01;35.03;;;16.17;;
70052;SDS011;57398;52.032;4.376;2022-07-21T04:27:29;37.40;;;16.77;;
70052;SDS011;57398;52.032;4.376;2022-07-21T04:29:58;35.33;;;16.63;;
70052;SDS011;57398;52.032;4.376;2022-07-21T04:32:25;35.70;;;16.45;;
70052;SDS011;57398;52.032;4.376;2022-07-21T04:34:53;38.38;;;17.85;;
70052;SDS011;57398;52.032;4.376;2022-07-21T04:37:20;37.22;;;17.13;;
70052;SDS011;57398;52.032;4.376;2022-07-21T04:39:48;34.53;;;16.63;;
70052;SDS011;57398;52.032;4.376;2022-07-21T04:42:18;39.90;;;18.73;;
70052;SDS011;57398;52.032;4.376;2022-07-21T04:44:46;39.78;;;17.75;;
70052;SDS011;57398;52.032;4.376;2022-07-21T04:47:15;35.25;;;17.95;;
70052;SDS011;57398;52.032;4.376;2022-07-21T04:49:43;38.63;;;17.67;;
70052;SDS011;57398;52.032;4.376;2022-07-21T04:52:10;38.83;;;17.87;;
70052;SDS011;57398;52.032;4.376;2022-07-21T04:54:37;48.13;;;17.52;;
70052;SDS011;57398;52.032;4.376;2022-07-21T04:57:05;38.45;;;17.73;;
70052;SDS011;57398;52.032;4.376;2022-07-21T04:59:33;37.58;;;17.83;;
70052;SDS011;57398;52.032;4.376;2022-07-21T05:02:01;36.03;;;18.10;;
70052;SDS011;57398;52.032;4.376;2022-07-21T05:04:30;40.43;;;18.63;;
70052;SDS011;57398;52.032;4.376;2022-07-21T05:06:58;38.42;;;17.95;;
70052;SDS011;57398;52.032;4.376;2022-07-21T05:09:25;41.67;;;18.67;;
70052;SDS011;57398;52.032;4.376;2022-07-21T05:11:53;37.47;;;18.45;;
70052;SDS011;57398;52.032;4.376;2022-07-21T05:14:20;37.88;;;18.30;;
70052;SDS011;57398;52.032;4.376;2022-07-21T05:16:48;39.40;;;19.43;;
70052;SDS011;57398;52.032;4.376;2022-07-21T05:19:15;43.00;;;19.17;;
70052;SDS011;57398;52.032;4.376;2022-07-21T05:21:44;38.08;;;18.90;;
70052;SDS011;57398;52.032;4.376;2022-07-21T05:24:13;38.45;;;18.73;;
70052;SDS011;57398;52.032;4.376;2022-07-21T05:26:41;37.65;;;18.30;;
70052;SDS011;57398;52.032;4.376;2022-07-21T05:29:08;41.87;;;18.57;;
70052;SDS011;57398;52.032;4.376;2022-07-21T05:31:35;40.60;;;18.33;;
70052;SDS011;57398;52.032;4.376;2022-07-21T05:34:03;41.35;;;19.63;;
70052;SDS011;57398;52.032;4.376;2022-07-21T05:36:31;37.90;;;17.58;;
70052;SDS011;57398;52.032;4.376;2022-07-21T05:38:59;34.72;;;17.00;;
70052;SDS011;57398;52.032;4.376;2022-07-21T05:41:27;37.13;;;17.73;;
70052;SDS011;57398;52.032;4.376;2022-07-21T05:43:54;34.58;;;17.55;;
70052;SDS011;57398;52.032;4.376;2022-07-21T05:46:22;32.80;;;16.65;;
70052;SDS011;57398;52.032;4.376;2022-07-21T05:48:50;35.45;;;16.67;;
70052;SDS011;57398;52.032;4.376;2022-07-21T05:51:18;32.88;;;16.00;;
70052;SDS011;57398;52.032;4.376;2022-07-21T05:53:45;32.13;;;15.87;;
70052;SDS011;57398;52.032;4.376;2022-07-21T05:56:14;35.70;;;16.00;;
70052;SDS011;57398;52.032;4.376;2022-07-21T05:58:42;31.27;;;15.68;;
70052;SDS011;57398;52.032;4.376;2022-07-21T06:01:10;32.25;;;16.63;;
70052;SDS011;57398;52.032;4.376;2022-07-21T06:03:41;34.70;;;16.27;;
70052;SDS011;57398;52.032;4.376;2022-07-21T06:06:09;28.37;;;14.97;;
70052;SDS011;57398;52.032;4.376;2022-07-21T06:08:39;29.17;;;14.52;;
70052;SDS011;57398;52.032;4.376;2022-07-21T06:11:07;29.45;;;15.20;;
70052;SDS011;57398;52.032;4.376;2022-07-21T06:13:36;25.17;;;14.32;;
70052;SDS011;57398;52.032;4.376;2022-07-21T06:16:04;24.15;;;12.98;;
70052;SDS011;57398;52.032;4.376;2022-07-21T06:18:33;20.27;;;11.97;;
70052;SDS011;57398;52.032;4.376;2022-07-21T06:21:00;23.23;;;11.88;;
70052;SDS011;57398;52.032;4.376;2022-07-21T06:23:28;22.50;;;11.85;;
70052;SDS011;57398;52.032;4.376;2022-07-21T06:25:55;23.05;;;12.68;;
70052;SDS011;57398;52.032;4.376;2022-07-21T06:28:23;22.35;;;11.25;;
70052;SDS011;57398;52.032;4.376;2022-07-21T06:30:52;18.87;;;10.67;;
70052;SDS011;57398;52.032;4.376;2022-07-21T06:33:19;17.27;;;10.23;;
70052;SDS011;57398;52.032;4.376;2022-07-21T06:35:47;21.40;;;11.05;;
70052;SDS011;57398;52.032;4.376;2022-07-21T06:38:14;16.95;;;9.98;;
70052;SDS011;57398;52.032;4.376;2022-07-21T06:40:42;16.17;;;7.80;;
70052;SDS011;57398;52.032;4.376;2022-07-21T06:43:09;14.03;;;8.33;;
70052;SDS011;57398;52.032;4.376;2022-07-21T06:45:54;14.18;;;8.15;;
70052;SDS011;57398;52.032;4.376;2022-07-21T06:48:22;13.57;;;8.73;;
70052;SDS011;57398;52.032;4.376;2022-07-21T06:50:51;14.55;;;9.23;;
70052;SDS011;57398;52.032;4.376;2022-07-21T06:53:19;18.63;;;10.38;;
70052;SDS011;57398;52.032;4.376;2022-07-21T06:55:46;18.23;;;9.60;;
70052;SDS011;57398;52.032;4.376;2022-07-21T06:58:25;17.75;;;10.00;;
70052;SDS011;57398;52.032;4.376;2022-07-21T07:00:54;18.23;;;10.38;;
70052;SDS011;57398;52.032;4.376;2022-07-21T07:03:23;19.58;;;9.73;;
70052;SDS011;57398;52.032;4.376;2022-07-21T07:05:51;17.00;;;8.73;;
70052;SDS011;57398;52.032;4.376;2022-07-21T07:08:18;15.37;;;8.43;;
70052;SDS011;57398;52.032;4.376;2022-07-21T07:10:46;16.83;;;8.82;;
70052;SDS011;57398;52.032;4.376;2022-07-21T07:13:13;16.85;;;10.82;;
70052;SDS011;57398;52.032;4.376;2022-07-21T07:16:03;21.88;;;10.90;;
70052;SDS011;57398;52.032;4.376;2022-07-21T07:18:30;23.45;;;12.82;;
70052;SDS011;57398;52.032;4.376;2022-07-21T07:20:58;24.00;;;13.80;;
70052;SDS011;57398;52.032;4.376;2022-07-21T07:23:25;30.25;;;15.32;;
70052;SDS011;57398;52.032;4.376;2022-07-21T07:25:52;27.65;;;15.32;;
70052;SDS011;57398;52.032;4.376;2022-07-21T07:28:20;27.90;;;14.95;;
70052;SDS011;57398;52.032;4.376;2022-07-21T07:30:47;33.05;;;16.35;;
70052;SDS011;57398;52.032;4.376;2022-07-21T07:33:16;28.10;;;15.90;;
70052;SDS011;57398;52.032;4.376;2022-07-21T07:35:44;34.33;;;16.20;;
70052;SDS011;57398;52.032;4.376;2022-07-21T07:38:12;34.67;;;16.92;;
70052;SDS011;57398;52.032;4.376;2022-07-21T07:40:39;31.00;;;17.33;;
70052;SDS011;57398;52.032;4.376;2022-07-21T07:43:07;32.10;;;16.55;;
70052;SDS011;57398;52.032;4.376;2022-07-21T07:45:35;32.60;;;16.87;;
70052;SDS011;57398;52.032;4.376;2022-07-21T07:48:03;29.58;;;16.08;;
70052;SDS011;57398;52.032;4.376;2022-07-21T07:50:31;31.02;;;16.55;;
70052;SDS011;57398;52.032;4.376;2022-07-21T07:52:59;30.52;;;15.65;;
70052;SDS011;57398;52.032;4.376;2022-07-21T07:55:27;27.27;;;14.73;;
70052;SDS011;57398;52.032;4.376;2022-07-21T07:57:54;25.87;;;14.57;;
70052;SDS011;57398;52.032;4.376;2022-07-21T08:00:22;27.90;;;14.35;;
70052;SDS011;57398;52.032;4.376;2022-07-21T08:03:09;29.83;;;14.40;;
70052;SDS011;57398;52.032;4.376;2022-07-21T08:05:38;25.25;;;13.90;;
70052;SDS011;57398;52.032;4.376;2022-07-21T08:08:06;24.65;;;13.55;;
70052;SDS011;57398;52.032;4.376;2022-07-21T08:10:33;27.63;;;13.70;;
70052;SDS011;57398;52.032;4.376;2022-07-21T08:13:08;24.17;;;12.63;;
70052;SDS011;57398;52.032;4.376;2022-07-21T08:15:35;31.15;;;14.25;;
70052;SDS011;57398;52.032;4.376;2022-07-21T08:18:03;28.40;;;13.50;;
70052;SDS011;57398;52.032;4.376;2022-07-21T08:20:31;26.00;;;13.30;;
70052;SDS011;57398;52.032;4.376;2022-07-21T08:23:00;26.50;;;13.10;;
70052;SDS011;57398;52.032;4.376;2022-07-21T08:25:27;26.75;;;11.77;;
70052;SDS011;57398;52.032;4.376;2022-07-21T08:27:55;26.80;;;12.32;;
70052;SDS011;57398;52.032;4.376;2022-07-21T08:30:22;21.58;;;11.13;;
70052;SDS011;57398;52.032;4.376;2022-07-21T08:32:55;22.55;;;11.48;;
70052;SDS011;57398;52.032;4.376;2022-07-21T08:35:23;20.50;;;11.03;;
70052;SDS011;57398;52.032;4.376;2022-07-21T08:37:55;19.60;;;10.70;;
70052;SDS011;57398;52.032;4.376;2022-07-21T08:40:25;21.23;;;10.63;;
70052;SDS011;57398;52.032;4.376;2022-07-21T08:42:53;22.27;;;11.10;;
70052;SDS011;57398;52.032;4.376;2022-07-21T08:45:21;17.77;;;9.82;;
70052;SDS011;57398;52.032;4.376;2022-07-21T08:47:49;21.17;;;9.80;;
70052;SDS011;57398;52.032;4.376;2022-07-21T08:50:17;18.80;;;9.23;;
70052;SDS011;57398;52.032;4.376;2022-07-21T08:52:45;16.92;;;9.18;;
70052;SDS011;57398;52.032;4.376;2022-07-21T08:55:13;17.50;;;9.10;;
70052;SDS011;57398;52.032;4.376;2022-07-21T08:57:42;14.02;;;8.15;;
70052;SDS011;57398;52.032;4.376;2022-07-21T09:00:12;13.37;;;7.57;;
70052;SDS011;57398;52.032;4.376;2022-07-21T09:02:40;13.95;;;7.70;;
70052;SDS011;57398;52.032;4.376;2022-07-21T09:05:08;10.18;;;5.40;;
70052;SDS011;57398;52.032;4.376;2022-07-21T09:07:46;7.20;;;4.70;;
70052;SDS011;57398;52.032;4.376;2022-07-21T09:10:13;9.13;;;4.60;;
70052;SDS011;57398;52.032;4.376;2022-07-21T09:12:49;7.77;;;4.63;;
70052;SDS011;57398;52.032;4.376;2022-07-21T09:15:17;8.48;;;5.15;;
70052;SDS011;57398;52.032;4.376;2022-07-21T09:17:45;10.27;;;6.20;;
70052;SDS011;57398;52.032;4.376;2022-07-21T09:20:33;11.27;;;5.82;;
70052;SDS011;57398;52.032;4.376;2022-07-21T09:23:06;10.50;;;5.75;;
70052;SDS011;57398;52.032;4.376;2022-07-21T09:25:36;33.47;;;17.10;;
70052;SDS011;57398;52.032;4.376;2022-07-21T09:28:13;13.02;;;7.35;;
70052;SDS011;57398;52.032;4.376;2022-07-21T09:30:50;9.20;;;5.70;;
70052;SDS011;57398;52.032;4.376;2022-07-21T09:33:19;9.77;;;5.50;;
70052;SDS011;57398;52.032;4.376;2022-07-21T09:35:57;8.35;;;4.90;;
70052;SDS011;57398;52.032;4.376;2022-07-21T09:38:25;9.83;;;4.87;;
70052;SDS011;57398;52.032;4.376;2022-07-21T09:40:53;6.93;;;4.40;;
70052;SDS011;57398;52.032;4.376;2022-07-21T09:43:32;7.68;;;4.38;;
70052;SDS011;57398;52.032;4.376;2022-07-21T09:46:01;7.70;;;4.60;;
70052;SDS011;57398;52.032;4.376;2022-07-21T09:48:30;8.10;;;4.60;;
70052;SDS011;57398;52.032;4.376;2022-07-21T09:53:51;10.15;;;4.95;;
70052;SDS011;57398;52.032;4.376;2022-07-21T09:56:19;9.02;;;4.97;;
70052;SDS011;57398;52.032;4.376;2022-07-21T09:58:49;8.88;;;4.07;;
70052;SDS011;57398;52.032;4.376;2022-07-21T10:01:17;6.95;;;4.03;;
70052;SDS011;57398;52.032;4.376;2022-07-21T10:03:46;7.63;;;4.57;;
70052;SDS011;57398;52.032;4.376;2022-07-21T10:06:14;9.85;;;4.13;;
70052;SDS011;57398;52.032;4.376;2022-07-21T10:08:42;10.02;;;4.80;;
70052;SDS011;57398;52.032;4.376;2022-07-21T10:11:10;9.15;;;4.72;;
70052;SDS011;57398;52.032;4.376;2022-07-21T10:13:44;11.05;;;5.03;;
70052;SDS011;57398;52.032;4.376;2022-07-21T10:16:13;8.43;;;4.30;;
70052;SDS011;57398;52.032;4.376;2022-07-21T10:18:45;8.70;;;4.53;;
70052;SDS011;57398;52.032;4.376;2022-07-21T10:21:18;7.22;;;3.90;;
70052;SDS011;57398;52.032;4.376;2022-07-21T10:23:50;9.07;;;3.63;;
70052;SDS011;57398;52.032;4.376;2022-07-21T10:26:20;7.85;;;3.58;;
70052;SDS011;57398;52.032;4.376;2022-07-21T10:28:48;7.33;;;3.57;;
70052;SDS011;57398;52.032;4.376;2022-07-21T10:31:18;6.88;;;3.50;;
70052;SDS011;57398;52.032;4.376;2022-07-21T10:33:56;6.88;;;3.30;;
70052;SDS011;57398;52.032;4.376;2022-07-21T10:36:40;5.35;;;2.63;;
70052;SDS011;57398;52.032;4.376;2022-07-21T10:39:13;5.47;;;2.00;;
70052;SDS011;57398;52.032;4.376;2022-07-21T10:41:43;4.60;;;1.97;;
70052;SDS011;57398;52.032;4.376;2022-07-21T10:47:02;5.68;;;2.30;;
70052;SDS011;57398;52.032;4.376;2022-07-21T10:49:40;8.45;;;2.33;;
70052;SDS011;57398;52.032;4.376;2022-07-21T10:57:33;23.83;;;9.48;;
70052;SDS011;57398;52.032;4.376;2022-07-21T11:02:50;7.25;;;2.70;;
70052;SDS011;57398;52.032;4.376;2022-07-21T11:05:18;5.47;;;2.30;;
70052;SDS011;57398;52.032;4.376;2022-07-21T11:10:32;6.28;;;2.50;;
70052;SDS011;57398;52.032;4.376;2022-07-21T11:13:01;5.30;;;2.53;;
70052;SDS011;57398;52.032;4.376;2022-07-21T11:15:45;6.53;;;2.97;;
70052;SDS011;57398;52.032;4.376;2022-07-21T11:18:17;8.30;;;3.00;;
70052;SDS011;57398;52.032;4.376;2022-07-21T11:20:59;8.17;;;3.17;;
70052;SDS011;57398;52.032;4.376;2022-07-21T11:23:34;9.88;;;3.88;;
70052;SDS011;57398;52.032;4.376;2022-07-21T11:26:01;6.82;;;3.03;;
70052;SDS011;57398;52.032;4.376;2022-07-21T11:28:28;7.88;;;2.65;;
70052;SDS011;57398;52.032;4.376;2022-07-21T11:31:05;7.63;;;2.97;;
70052;SDS011;57398;52.032;4.376;2022-07-21T11:33:34;7.33;;;3.00;;
70052;SDS011;57398;52.032;4.376;2022-07-21T11:36:03;7.22;;;3.00;;
70052;SDS011;57398;52.032;4.376;2022-07-21T11:38:37;10.05;;;3.53;;
70052;SDS011;57398;52.032;4.376;2022-07-21T11:41:14;8.90;;;2.60;;
70052;SDS011;57398;52.032;4.376;2022-07-21T11:43:42;7.22;;;2.83;;
70052;SDS011;57398;52.032;4.376;2022-07-21T11:46:10;5.43;;;2.60;;
70052;SDS011;57398;52.032;4.376;2022-07-21T11:48:39;7.45;;;2.40;;
70052;SDS011;57398;52.032;4.376;2022-07-21T11:51:07;7.25;;;2.10;;
70052;SDS011;57398;52.032;4.376;2022-07-21T11:53:34;6.75;;;2.20;;
70052;SDS011;57398;52.032;4.376;2022-07-21T11:56:12;8.00;;;2.53;;
70052;SDS011;57398;52.032;4.376;2022-07-21T11:58:40;6.13;;;2.17;;
70052;SDS011;57398;52.032;4.376;2022-07-21T12:01:10;8.02;;;2.67;;
70052;SDS011;57398;52.032;4.376;2022-07-21T12:03:50;5.97;;;1.88;;
70052;SDS011;57398;52.032;4.376;2022-07-21T12:06:18;6.13;;;2.10;;
70052;SDS011;57398;52.032;4.376;2022-07-21T12:08:47;6.10;;;1.80;;
70052;SDS011;57398;52.032;4.376;2022-07-21T12:11:14;6.10;;;1.60;;
70052;SDS011;57398;52.032;4.376;2022-07-21T12:13:51;6.65;;;2.00;;
70052;SDS011;57398;52.032;4.376;2022-07-21T12:16:22;6.32;;;1.88;;
70052;SDS011;57398;52.032;4.376;2022-07-21T12:21:43;5.47;;;1.63;;
70052;SDS011;57398;52.032;4.376;2022-07-21T12:24:11;6.30;;;1.90;;
70052;SDS011;57398;52.032;4.376;2022-07-21T12:26:41;5.40;;;1.52;;
70052;SDS011;57398;52.032;4.376;2022-07-21T12:29:09;7.30;;;1.90;;
70052;SDS011;57398;52.032;4.376;2022-07-21T12:31:36;7.18;;;1.77;;
70052;SDS011;57398;52.032;4.376;2022-07-21T12:34:11;5.68;;;1.90;;
70052;SDS011;57398;52.032;4.376;2022-07-21T12:36:55;8.80;;;2.07;;
70052;SDS011;57398;52.032;4.376;2022-07-21T12:39:25;9.10;;;2.33;;
70052;SDS011;57398;52.032;4.376;2022-07-21T12:42:11;7.45;;;2.40;;
70052;SDS011;57398;52.032;4.376;2022-07-21T12:44:38;8.75;;;2.47;;
70052;SDS011;57398;52.032;4.376;2022-07-21T12:47:13;7.32;;;2.30;;
70052;SDS011;57398;52.032;4.376;2022-07-21T12:49:54;8.17;;;2.23;;
70052;SDS011;57398;52.032;4.376;2022-07-21T12:52:44;7.78;;;2.10;;
70052;SDS011;57398;52.032;4.376;2022-07-21T12:55:11;7.85;;;2.08;;
70052;SDS011;57398;52.032;4.376;2022-07-21T12:57:39;8.15;;;2.20;;
70052;SDS011;57398;52.032;4.376;2022-07-21T13:00:07;6.90;;;1.73;;
70052;SDS011;57398;52.032;4.376;2022-07-21T13:02:45;7.30;;;2.13;;
70052;SDS011;57398;52.032;4.376;2022-07-21T13:05:13;6.63;;;2.05;;
70052;SDS011;57398;52.032;4.376;2022-07-21T13:07:41;10.00;;;2.60;;
70052;SDS011;57398;52.032;4.376;2022-07-21T13:10:10;11.13;;;2.70;;
70052;SDS011;57398;52.032;4.376;2022-07-21T13:12:37;9.88;;;2.00;;
70052;SDS011;57398;52.032;4.376;2022-07-21T13:15:05;8.03;;;2.53;;
70052;SDS011;57398;52.032;4.376;2022-07-21T13:17:33;7.95;;;2.00;;
70052;SDS011;57398;52.032;4.376;2022-07-21T13:20:00;10.40;;;2.53;;
70052;SDS011;57398;52.032;4.376;2022-07-21T13:22:32;8.52;;;2.60;;
70052;SDS011;57398;52.032;4.376;2022-07-21T13:25:00;10.38;;;2.88;;
70052;SDS011;57398;52.032;4.376;2022-07-21T13:27:30;9.50;;;2.50;;
70052;SDS011;57398;52.032;4.376;2022-07-21T13:29:57;10.50;;;2.30;;
70052;SDS011;57398;52.032;4.376;2022-07-21T13:32:25;10.68;;;2.83;;
70052;SDS011;57398;52.032;4.376;2022-07-21T13:34:52;10.45;;;2.42;;
70052;SDS011;57398;52.032;4.376;2022-07-21T13:37:40;9.93;;;1.88;;
70052;SDS011;57398;52.032;4.376;2022-07-21T13:40:08;9.50;;;2.30;;
70052;SDS011;57398;52.032;4.376;2022-07-21T13:42:57;8.68;;;2.03;;
70052;SDS011;57398;52.032;4.376;2022-07-21T13:45:45;8.77;;;2.00;;
70052;SDS011;57398;52.032;4.376;2022-07-21T13:48:12;9.95;;;2.05;;
70052;SDS011;57398;52.032;4.376;2022-07-21T13:50:40;13.80;;;2.17;;
70052;SDS011;57398;52.032;4.376;2022-07-21T13:53:07;8.13;;;1.90;;
70052;SDS011;57398;52.032;4.376;2022-07-21T13:55:35;9.18;;;2.25;;
70052;SDS011;57398;52.032;4.376;2022-07-21T13:58:04;7.47;;;1.92;;
70052;SDS011;57398;52.032;4.376;2022-07-21T14:00:33;9.23;;;2.35;;
70052;SDS011;57398;52.032;4.376;2022-07-21T14:03:08;10.57;;;2.33;;
70052;SDS011;57398;52.032;4.376;2022-07-21T14:05:38;11.50;;;2.30;;
70052;SDS011;57398;52.032;4.376;2022-07-21T14:08:05;7.88;;;2.15;;
70052;SDS011;57398;52.032;4.376;2022-07-21T14:10:33;7.68;;;2.00;;
70052;SDS011;57398;52.032;4.376;2022-07-21T14:13:01;8.32;;;2.20;;
70052;SDS011;57398;52.032;4.376;2022-07-21T14:15:29;9.27;;;2.92;;
70052;SDS011;57398;52.032;4.376;2022-07-21T14:17:57;12.83;;;2.93;;
70052;SDS011;57398;52.032;4.376;2022-07-21T14:20:25;10.00;;;2.10;;
70052;SDS011;57398;52.032;4.376;2022-07-21T14:22:52;7.32;;;1.70;;
70052;SDS011;57398;52.032;4.376;2022-07-21T14:25:20;12.85;;;2.55;;
70052;SDS011;57398;52.032;4.376;2022-07-21T14:27:49;13.73;;;1.90;;
70052;SDS011;57398;52.032;4.376;2022-07-21T14:30:18;8.83;;;2.10;;
70052;SDS011;57398;52.032;4.376;2022-07-21T14:32:47;10.68;;;2.42;;
70052;SDS011;57398;52.032;4.376;2022-07-21T14:35:15;11.82;;;2.35;;
70052;SDS011;57398;52.032;4.376;2022-07-21T14:37:45;10.63;;;2.83;;
70052;SDS011;57398;52.032;4.376;2022-07-21T14:40:13;12.50;;;3.05;;
70052;SDS011;57398;52.032;4.376;2022-07-21T14:42:41;8.20;;;2.20;;
70052;SDS011;57398;52.032;4.376;2022-07-21T14:45:09;10.13;;;2.58;;
70052;SDS011;57398;52.032;4.376;2022-07-21T14:47:43;15.20;;;2.60;;
70052;SDS011;57398;52.032;4.376;2022-07-21T14:50:13;8.35;;;2.25;;
70052;SDS011;57398;52.032;4.376;2022-07-21T14:52:41;9.90;;;2.38;;
70052;SDS011;57398;52.032;4.376;2022-07-21T14:55:09;9.13;;;2.00;;
70052;SDS011;57398;52.032;4.376;2022-07-21T14:57:36;9.10;;;2.15;;
70052;SDS011;57398;52.032;4.376;2022-07-21T15:00:05;9.60;;;2.10;;
70052;SDS011;57398;52.032;4.376;2022-07-21T15:02:33;6.47;;;2.00;;